createdAt,value
2022-12-19T00:00:22.251Z,8.13
2022-12-19T00:03:09.449Z,8.27
2022-12-19T00:05:56.761Z,8.23
2022-12-19T00:08:45.702Z,8.80
2022-12-19T00:11:34.750Z,7.27
2022-12-19T00:14:22.881Z,8.90
2022-12-19T00:17:10.326Z,9.17
2022-12-19T00:19:57.835Z,8.13
2022-12-19T00:22:45.062Z,7.00
2022-12-19T00:25:32.388Z,6.67
2022-12-19T00:28:22.759Z,6.43
2022-12-19T00:31:13.163Z,9.43
2022-12-19T00:34:01.198Z,9.47
2022-12-19T00:36:48.383Z,8.63
2022-12-19T00:39:35.768Z,7.13
2022-12-19T00:42:23.156Z,8.23
2022-12-19T00:45:12.226Z,9.80
2022-12-19T00:47:59.628Z,8.40
2022-12-19T00:50:47.050Z,8.27
2022-12-19T00:53:35.568Z,5.57
2022-12-19T00:56:25.386Z,7.67
2022-12-19T00:59:12.687Z,6.70
2022-12-19T01:02:01.754Z,9.23
2022-12-19T01:04:50.795Z,10.03
2022-12-19T01:07:38.584Z,6.93
2022-12-19T01:10:25.609Z,7.27
2022-12-19T01:13:12.106Z,7.60
2022-12-19T01:16:03.814Z,7.60
2022-12-19T01:18:52.247Z,4.33
2022-12-19T01:21:39.452Z,8.10
2022-12-19T01:24:26.779Z,7.93
2022-12-19T01:27:14.447Z,8.73
2022-12-19T01:30:02.705Z,8.40
2022-12-19T01:32:49.834Z,6.20
2022-12-19T01:35:38.595Z,6.47
2022-12-19T01:38:25.672Z,8.40
2022-12-19T01:41:13.673Z,7.50
2022-12-19T01:44:04.372Z,6.63
2022-12-19T01:46:54.043Z,7.67
2022-12-19T01:49:41.395Z,4.77
2022-12-19T01:52:30.669Z,6.67
2022-12-19T01:55:18.469Z,4.37
2022-12-19T01:58:05.911Z,4.07
2022-12-19T02:00:53.391Z,4.97
2022-12-19T02:03:42.414Z,5.90
2022-12-19T02:06:31.881Z,5.63
2022-12-19T02:09:21.482Z,8.40
2022-12-19T02:12:12.395Z,8.77
2022-12-19T02:15:03.201Z,7.63
2022-12-19T02:18:05.657Z,9.10
2022-12-19T02:21:10.836Z,8.77
2022-12-19T02:24:27.514Z,5.50
2022-12-19T02:27:33.880Z,8.80
2022-12-19T02:30:41.595Z,8.27
2022-12-19T02:33:39.766Z,7.50
2022-12-19T02:36:33.988Z,8.30
2022-12-19T02:39:33.711Z,7.93
2022-12-19T02:42:27.614Z,7.17
2022-12-19T02:45:28.643Z,9.13
2022-12-19T02:48:19.455Z,7.93
2022-12-19T02:51:08.420Z,7.63
2022-12-19T02:53:58.215Z,8.30
2022-12-19T02:56:53.934Z,6.90
2022-12-19T02:59:59.067Z,7.87
2022-12-19T03:03:00.413Z,6.03
2022-12-19T03:05:57.103Z,5.83
2022-12-19T03:08:49.620Z,7.93
2022-12-19T03:11:40.058Z,7.10
2022-12-19T03:14:28.784Z,9.40
2022-12-19T03:17:16.064Z,8.70
2022-12-19T03:20:09.454Z,8.40
2022-12-19T03:22:58.307Z,5.27
2022-12-19T03:25:49.860Z,5.83
2022-12-19T03:28:43.092Z,8.47
2022-12-19T03:31:33.231Z,5.73
2022-12-19T03:34:25.643Z,5.37
2022-12-19T03:37:16.388Z,8.17
2022-12-19T03:40:09.891Z,5.70
2022-12-19T03:43:09.808Z,6.53
2022-12-19T03:46:03.152Z,6.40
2022-12-19T03:48:52.752Z,9.97
2022-12-19T03:51:48.275Z,7.17
2022-12-19T03:54:40.198Z,8.50
2022-12-19T03:57:33.839Z,7.17
2022-12-19T04:00:25.157Z,10.73
2022-12-19T04:03:13.475Z,9.07
2022-12-19T04:06:02.802Z,9.80
2022-12-19T04:08:51.183Z,6.87
2022-12-19T04:11:41.626Z,8.90
2022-12-19T04:14:34.098Z,7.50
2022-12-19T04:17:30.933Z,8.47
2022-12-19T04:20:20.380Z,8.43
2022-12-19T04:23:12.908Z,10.37
2022-12-19T04:26:04.147Z,7.77
2022-12-19T04:28:56.049Z,7.40
2022-12-19T04:31:45.453Z,8.97
2022-12-19T04:34:33.483Z,7.87
2022-12-19T04:37:20.662Z,4.77
2022-12-19T04:40:10.007Z,4.80
2022-12-19T04:42:57.374Z,9.63
2022-12-19T04:45:44.896Z,8.37
2022-12-19T04:48:36.489Z,7.20
2022-12-19T04:51:23.834Z,9.20
2022-12-19T04:54:11.301Z,7.00
2022-12-19T04:56:58.646Z,10.30
2022-12-19T04:59:46.003Z,9.70
2022-12-19T05:02:33.578Z,3.83
2022-12-19T05:05:22.185Z,6.47
2022-12-19T05:08:09.242Z,11.47
2022-12-19T05:11:00.675Z,9.87
2022-12-19T05:13:49.819Z,10.40
2022-12-19T05:16:37.356Z,7.53
2022-12-19T05:19:25.062Z,6.07
2022-12-19T05:22:13.548Z,8.97
2022-12-19T05:25:00.695Z,9.07
2022-12-19T05:27:48.152Z,10.80
2022-12-19T05:30:35.601Z,7.67
2022-12-19T05:33:23.011Z,9.47
2022-12-19T05:36:11.686Z,10.33
2022-12-19T05:39:00.887Z,9.50
2022-12-19T05:41:49.267Z,8.70
2022-12-19T05:44:37.054Z,10.10
2022-12-19T05:47:24.525Z,9.33
2022-12-19T05:50:12.072Z,10.17
2022-12-19T05:52:59.275Z,9.63
2022-12-19T05:55:47.981Z,7.57
2022-12-19T05:58:35.360Z,9.43
2022-12-19T06:01:25.040Z,6.80
2022-12-19T06:04:12.634Z,9.97
2022-12-19T06:06:59.930Z,7.90
2022-12-19T06:09:47.191Z,9.23
2022-12-19T06:12:35.880Z,10.43
2022-12-19T06:15:22.958Z,8.63
2022-12-19T06:18:10.281Z,9.70
2022-12-19T06:21:00.495Z,9.93
2022-12-19T06:23:48.958Z,9.27
2022-12-19T06:26:36.507Z,10.13
2022-12-19T06:29:25.175Z,9.67
2022-12-19T06:32:12.403Z,9.50
2022-12-19T06:35:04.443Z,8.90
2022-12-19T06:37:55.304Z,7.40
2022-12-19T06:41:03.257Z,8.20
2022-12-19T06:43:53.635Z,9.47
2022-12-19T06:46:42.876Z,6.87
2022-12-19T06:49:30.317Z,7.47
2022-12-19T06:52:18.236Z,9.47
2022-12-19T06:55:06.104Z,6.93
2022-12-19T06:57:53.245Z,8.10
2022-12-19T07:00:40.595Z,9.33
2022-12-19T07:03:36.259Z,8.50
2022-12-19T07:06:24.335Z,7.27
2022-12-19T07:09:11.669Z,9.63
2022-12-19T07:11:59.071Z,7.67
2022-12-19T07:14:51.655Z,9.03
2022-12-19T07:17:41.118Z,9.07
2022-12-19T07:20:31.428Z,8.97
2022-12-19T07:23:21.778Z,8.60
2022-12-19T07:26:09.304Z,8.53
2022-12-19T07:28:57.837Z,4.73
2022-12-19T07:31:45.133Z,6.73
2022-12-19T07:34:32.570Z,9.57
2022-12-19T07:37:21.584Z,6.43
2022-12-19T07:40:09.711Z,7.17
2022-12-19T07:43:00.363Z,8.17
2022-12-19T07:45:47.699Z,8.20
2022-12-19T07:48:34.862Z,3.83
2022-12-19T07:51:22.298Z,8.47
2022-12-19T07:54:11.266Z,9.73
2022-12-19T07:56:58.366Z,6.33
2022-12-19T07:59:46.624Z,6.60
2022-12-19T08:02:34.143Z,7.90
2022-12-19T08:05:22.065Z,8.60
2022-12-19T08:08:09.881Z,7.10
2022-12-19T08:11:06.290Z,9.13
2022-12-19T08:13:54.000Z,8.83
2022-12-19T08:17:18.293Z,6.33
2022-12-19T08:19:48.456Z,9.30
2022-12-19T08:22:36.008Z,5.93
2022-12-19T08:25:23.128Z,6.37
2022-12-19T08:28:11.964Z,8.17
2022-12-19T08:30:59.055Z,7.57
2022-12-19T08:33:47.279Z,6.37
2022-12-19T08:36:34.647Z,4.67
2022-12-19T08:39:21.699Z,6.23
2022-12-19T08:42:09.200Z,7.77
2022-12-19T08:44:57.578Z,6.10
2022-12-19T08:47:44.818Z,7.93
2022-12-19T08:50:32.186Z,6.63
2022-12-19T08:53:25.876Z,5.30
2022-12-19T08:56:16.037Z,7.70
2022-12-19T08:59:04.821Z,8.90
2022-12-19T09:01:53.612Z,8.10
2022-12-19T09:05:57.670Z,6.03
2022-12-19T09:07:49.331Z,7.37
2022-12-19T09:10:37.819Z,8.40
2022-12-19T09:13:25.471Z,7.03
2022-12-19T09:16:15.814Z,8.63
2022-12-19T09:19:04.167Z,7.43
2022-12-19T09:21:51.407Z,7.80
2022-12-19T09:24:38.667Z,7.63
2022-12-19T09:27:26.361Z,8.37
2022-12-19T09:30:15.096Z,8.67
2022-12-19T09:33:02.577Z,8.83
2022-12-19T09:35:52.634Z,7.70
2022-12-19T09:38:42.081Z,7.03
2022-12-19T09:41:42.309Z,8.27
2022-12-19T09:44:44.908Z,9.70
2022-12-19T09:47:33.670Z,9.00
2022-12-19T09:50:32.229Z,8.77
2022-12-19T09:53:26.610Z,6.83
2022-12-19T09:56:16.898Z,6.07
2022-12-19T09:59:13.643Z,8.70
2022-12-19T10:02:06.154Z,8.47
2022-12-19T10:05:10.646Z,7.97
2022-12-19T10:08:17.857Z,6.93
2022-12-19T10:12:46.143Z,7.27
2022-12-19T10:14:34.400Z,5.67
2022-12-19T10:17:30.746Z,9.50
2022-12-19T10:20:26.447Z,5.17
2022-12-19T10:23:33.110Z,7.23
2022-12-19T10:26:24.435Z,9.47
2022-12-19T10:29:42.188Z,5.50
2022-12-19T10:32:37.674Z,10.43
2022-12-19T10:35:32.511Z,6.77
2022-12-19T10:38:25.513Z,7.90
2022-12-19T10:41:17.504Z,9.00
2022-12-19T10:44:08.146Z,6.70
2022-12-19T10:46:55.646Z,9.33
2022-12-19T10:49:43.362Z,8.87
2022-12-19T10:52:56.851Z,8.10
2022-12-19T10:55:47.347Z,8.10
2022-12-19T10:58:36.559Z,6.70
2022-12-19T11:01:27.392Z,9.00
2022-12-19T11:04:25.819Z,9.03
2022-12-19T11:07:20.683Z,8.63
2022-12-19T11:12:29.009Z,9.63
2022-12-19T11:18:00.448Z,9.13
2022-12-19T11:28:06.007Z,8.30
2022-12-19T11:29:34.765Z,8.60
2022-12-19T11:29:39.898Z,8.77
2022-12-19T11:29:46.979Z,5.83
2022-12-19T11:33:15.661Z,9.33
2022-12-19T11:36:05.554Z,9.17
2022-12-19T11:38:54.598Z,4.90
2022-12-19T11:41:46.304Z,6.67
2022-12-19T11:44:38.715Z,9.50
2022-12-19T11:47:34.823Z,9.33
2022-12-19T11:50:27.645Z,8.17
2022-12-19T11:53:20.509Z,8.67
2022-12-19T11:56:16.132Z,8.43
2022-12-19T11:59:13.894Z,8.60
2022-12-19T12:02:26.282Z,7.60
2022-12-19T12:05:41.936Z,8.97
2022-12-19T12:12:13.093Z,6.73
2022-12-19T12:23:31.865Z,7.90
2022-12-19T12:26:25.951Z,9.07
2022-12-19T12:31:06.392Z,8.87
2022-12-19T12:31:44.393Z,10.17
2022-12-19T12:31:46.048Z,8.97
2022-12-19T12:32:06.317Z,9.30
2022-12-19T12:35:50.035Z,9.00
2022-12-19T12:37:51.391Z,8.20
2022-12-19T12:39:02.797Z,8.87
2022-12-19T12:42:06.508Z,7.43
2022-12-19T12:44:57.162Z,9.57
2022-12-19T12:47:46.066Z,8.87
2022-12-19T12:50:35.021Z,7.77
2022-12-19T12:53:26.680Z,7.97
2022-12-19T12:56:17.994Z,9.07
2022-12-19T12:59:21.117Z,7.90
2022-12-19T13:02:18.031Z,8.23
2022-12-19T13:05:25.065Z,4.93
2022-12-19T13:08:35.483Z,8.47
2022-12-19T13:11:58.201Z,8.00
2022-12-19T13:14:48.711Z,5.93
2022-12-19T13:18:09.676Z,8.00
2022-12-19T13:20:58.115Z,7.27
2022-12-19T13:23:49.370Z,7.50
2022-12-19T13:26:51.094Z,9.40
2022-12-19T13:29:55.549Z,8.43
2022-12-19T13:33:09.896Z,7.33
2022-12-19T13:39:35.882Z,8.73
2022-12-19T13:39:49.684Z,8.30
2022-12-19T13:42:34.944Z,9.10
2022-12-19T13:45:26.889Z,8.50
2022-12-19T13:48:18.456Z,8.17
2022-12-19T13:51:07.826Z,8.40
2022-12-19T13:53:59.629Z,10.20
2022-12-19T13:56:47.368Z,9.53
2022-12-19T13:59:39.532Z,10.23
2022-12-19T14:02:31.698Z,10.97
2022-12-19T14:05:44.506Z,10.17
2022-12-19T14:08:32.789Z,7.50
2022-12-19T14:11:38.276Z,11.77
2022-12-19T14:14:46.242Z,11.47
2022-12-19T14:17:34.667Z,11.37
2022-12-19T14:22:02.813Z,10.37
2022-12-19T14:23:42.732Z,9.60
2022-12-19T14:28:27.103Z,11.00
2022-12-19T14:30:26.130Z,10.57
2022-12-19T14:33:46.085Z,8.80
2022-12-19T14:36:11.419Z,10.43
2022-12-19T14:39:24.576Z,10.67
2022-12-19T14:43:56.816Z,10.03
2022-12-19T14:52:07.996Z,11.20
2022-12-19T14:53:08.410Z,10.63
2022-12-19T14:54:40.843Z,10.67
2022-12-19T14:56:13.564Z,10.50
2022-12-19T14:58:56.294Z,11.47
2022-12-19T15:01:52.378Z,7.97
2022-12-19T15:04:50.655Z,11.70
2022-12-19T15:07:45.552Z,11.00
2022-12-19T15:11:08.582Z,11.73
2022-12-19T15:14:54.727Z,11.03
2022-12-19T15:17:21.168Z,11.13
2022-12-19T15:20:12.133Z,12.07
2022-12-19T15:22:59.425Z,10.97
2022-12-19T15:26:04.668Z,8.17
2022-12-19T15:28:55.606Z,11.47
2022-12-19T15:31:44.159Z,12.60
2022-12-19T15:34:37.126Z,10.23
2022-12-19T15:37:30.384Z,12.00
2022-12-19T15:40:19.155Z,12.13
2022-12-19T15:43:06.935Z,11.80
2022-12-19T15:45:59.645Z,12.07
2022-12-19T15:48:50.319Z,10.93
2022-12-19T15:51:37.650Z,11.03
2022-12-19T15:57:37.815Z,9.97
2022-12-19T16:00:28.540Z,7.53
2022-12-19T16:03:24.951Z,11.60
2022-12-19T16:06:14.308Z,10.67
2022-12-19T16:09:01.604Z,10.87
2022-12-19T16:11:50.932Z,12.37
2022-12-19T16:14:38.128Z,10.93
2022-12-19T16:17:26.833Z,11.83
2022-12-19T16:20:19.549Z,9.10
2022-12-19T16:23:06.976Z,11.23
2022-12-19T16:25:54.513Z,11.97
2022-12-19T16:28:43.003Z,10.63
2022-12-19T16:31:30.325Z,10.27
2022-12-19T16:34:20.182Z,11.03
2022-12-19T16:37:07.534Z,12.97
2022-12-19T16:39:54.907Z,12.07
2022-12-19T16:42:42.814Z,13.57
2022-12-19T16:45:34.211Z,12.03
2022-12-19T16:53:25.186Z,9.80
2022-12-19T16:56:21.995Z,10.93
2022-12-19T16:59:16.258Z,12.30
2022-12-19T17:02:30.532Z,12.40
2022-12-19T17:05:21.941Z,11.60
2022-12-19T17:08:13.235Z,10.90
2022-12-19T17:11:00.855Z,12.03
2022-12-19T17:13:50.412Z,11.23
2022-12-19T17:16:38.314Z,12.63
2022-12-19T17:19:34.635Z,8.97
2022-12-19T17:22:22.317Z,9.97
2022-12-19T17:25:17.498Z,12.93
2022-12-19T17:28:05.020Z,10.60
2022-12-19T17:30:54.947Z,11.50
2022-12-19T17:33:42.543Z,11.97
2022-12-19T17:36:37.514Z,6.50
2022-12-19T17:39:26.789Z,12.57
2022-12-19T17:42:19.446Z,12.87
2022-12-19T17:45:07.499Z,10.10
2022-12-19T17:48:02.232Z,11.70
2022-12-19T17:50:49.964Z,12.77
2022-12-19T17:53:38.833Z,9.30
2022-12-19T17:56:25.871Z,14.13
2022-12-19T17:59:13.391Z,13.47
2022-12-19T18:02:00.981Z,13.03
2022-12-19T18:04:48.285Z,15.23
2022-12-19T18:07:35.583Z,11.40
2022-12-19T18:10:27.112Z,12.73
2022-12-19T18:13:14.117Z,12.43
2022-12-19T18:16:03.966Z,13.70
2022-12-19T18:18:51.524Z,10.67
2022-12-19T18:21:38.980Z,12.27
2022-12-19T18:24:26.954Z,11.77
2022-12-19T18:27:15.531Z,13.43
2022-12-19T18:30:02.716Z,12.60
2022-12-19T18:32:52.299Z,12.47
2022-12-19T18:35:42.543Z,12.27
2022-12-19T18:38:29.653Z,11.60
2022-12-19T18:41:18.477Z,11.73
2022-12-19T18:44:07.213Z,11.43
2022-12-19T18:46:54.793Z,12.17
2022-12-19T18:49:42.152Z,13.20
2022-12-19T18:52:30.131Z,11.93
2022-12-19T18:55:19.537Z,10.77
2022-12-19T18:58:07.304Z,11.27
2022-12-19T19:00:59.358Z,13.10
2022-12-19T19:03:52.408Z,11.77
2022-12-19T19:06:43.486Z,11.90
2022-12-19T19:09:37.415Z,12.80
2022-12-19T19:12:45.314Z,10.97
2022-12-19T19:15:35.268Z,11.43
2022-12-19T19:18:26.944Z,10.90
2022-12-19T19:21:15.622Z,10.93
2022-12-19T19:24:08.121Z,11.60
2022-12-19T19:26:55.629Z,10.00
2022-12-19T19:29:43.080Z,11.57
2022-12-19T19:32:30.686Z,12.13
2022-12-19T19:35:21.886Z,10.97
2022-12-19T19:38:10.229Z,11.97
2022-12-19T19:40:58.651Z,11.30
2022-12-19T19:43:45.783Z,10.73
2022-12-19T19:46:33.373Z,11.20
2022-12-19T19:49:21.603Z,11.27
2022-12-19T19:52:11.135Z,10.37
2022-12-19T19:54:58.669Z,10.20
2022-12-19T19:57:46.108Z,10.93
2022-12-19T20:00:33.640Z,12.30
2022-12-19T20:03:23.394Z,11.80
2022-12-19T20:06:11.388Z,12.00
2022-12-19T20:09:00.170Z,10.70
2022-12-19T20:11:47.341Z,10.00
2022-12-19T20:14:34.645Z,10.83
2022-12-19T20:17:22.220Z,10.80
2022-12-19T20:20:10.660Z,10.93
2022-12-19T20:22:57.741Z,11.53
2022-12-19T20:25:46.359Z,11.03
2022-12-19T20:28:34.073Z,10.30
2022-12-19T20:31:24.559Z,9.20
2022-12-19T20:34:12.251Z,11.73
2022-12-19T20:36:59.517Z,11.10
2022-12-19T20:39:46.728Z,9.53
2022-12-19T20:42:35.778Z,11.13
2022-12-19T20:45:23.184Z,9.87
2022-12-19T20:48:11.583Z,10.10
2022-12-19T20:50:59.949Z,10.17
2022-12-19T20:53:47.524Z,10.53
2022-12-19T20:56:36.137Z,10.23
2022-12-19T20:59:24.743Z,9.90
2022-12-19T21:02:12.560Z,9.23
2022-12-19T21:05:00.301Z,11.10
2022-12-19T21:07:47.656Z,10.10
2022-12-19T21:10:36.767Z,11.07
2022-12-19T21:13:24.919Z,10.33
2022-12-19T21:16:15.916Z,9.97
2022-12-19T21:19:03.105Z,9.77
2022-12-19T21:21:50.535Z,8.60
2022-12-19T21:24:37.971Z,10.00
2022-12-19T21:27:25.138Z,10.37
2022-12-19T21:30:13.334Z,10.00
2022-12-19T21:33:02.035Z,10.17
2022-12-19T21:35:49.594Z,9.13
2022-12-19T21:38:38.088Z,10.43
2022-12-19T21:41:25.391Z,9.17
2022-12-19T21:44:13.311Z,10.50
2022-12-19T21:47:00.706Z,9.50
2022-12-19T21:49:49.449Z,9.37
2022-12-19T21:52:36.964Z,8.80
2022-12-19T21:55:24.013Z,10.27
2022-12-19T21:58:11.455Z,9.27
2022-12-19T22:01:08.273Z,9.87
2022-12-19T22:03:59.769Z,10.00
2022-12-19T22:06:50.047Z,9.63
2022-12-19T22:09:37.561Z,9.73
2022-12-19T22:12:25.776Z,7.23
2022-12-19T22:15:13.375Z,9.57
2022-12-19T22:18:00.513Z,10.87
2022-12-19T22:20:48.148Z,9.33
2022-12-19T22:23:36.865Z,9.87
2022-12-19T22:26:25.501Z,10.53
2022-12-19T22:29:15.841Z,9.63
2022-12-19T22:32:03.098Z,11.13
2022-12-19T22:34:50.374Z,10.23
2022-12-19T22:37:37.652Z,9.90
2022-12-19T22:40:26.382Z,9.37
2022-12-19T22:43:13.590Z,9.90
2022-12-19T22:46:01.241Z,10.67
2022-12-19T22:48:50.117Z,9.23
2022-12-19T22:51:38.183Z,11.07
2022-12-19T22:54:25.559Z,10.93
2022-12-19T22:57:14.453Z,10.10
2022-12-19T23:00:01.836Z,10.10
2022-12-19T23:02:49.184Z,10.00
2022-12-19T23:05:37.132Z,9.97
2022-12-19T23:08:24.823Z,9.40
2022-12-19T23:11:15.149Z,10.10
2022-12-19T23:14:05.649Z,10.37
2022-12-19T23:16:53.139Z,10.53
2022-12-19T23:19:40.498Z,10.80
2022-12-19T23:22:27.854Z,10.50
2022-12-19T23:25:15.300Z,9.13
2022-12-19T23:28:02.275Z,9.70
2022-12-19T23:30:51.149Z,10.47
2022-12-19T23:33:38.301Z,10.23
2022-12-19T23:39:33.731Z,10.83
2022-12-19T23:42:21.003Z,8.80
2022-12-19T23:45:09.592Z,9.93
2022-12-19T23:47:57.988Z,10.10
2022-12-19T23:50:45.435Z,9.67
2022-12-19T23:53:33.691Z,9.67
2022-12-19T23:56:23.554Z,9.23
2022-12-19T23:59:10.793Z,9.83
